Airfield :
LOGIN :

Register | Disclaimer

   EN    FR    IT 

 










Legend :    VFR   Marginal VFR   IFR   Intensive IFR   Very Intensive IFR
Visi :
Ceiling :
>= 8 km
>= 3000ft
5 to 8 km
1000 to 3000 ft
1500m to 5 km
500 to 1000 ft
800 to 1500m
200 to 500 ft
< 800m
< 200 ft
Symbols :   Thunderstorms  Fog  Heavy snow  Heavy precipitations  Wind > 20 kt
SIGMETs :     Misc.  Thunderstorms  Icing  Turbulence  Mountain Waves  Volcanic Ashes






- Airport Elevation : 82 ft
- IATA code : AAR


EKAH - Aarhus Tirstrup

CURRENT METAR :
  • 190450Z AUTO 25006KT 9999 FEW230/// 15/12 Q1022

EXPIRED METARs :
  • 190420Z AUTO 23005KT 200V260 9999 FEW230/// 14/12 Q1022
  • 190350Z AUTO 23005KT 9999 FEW240/// 13/12 Q1022
  • 190320Z AUTO 23004KT 200V270 9999 FEW240/// 13/11 Q1022
  • 190250Z AUTO 23003KT 9999 FEW240/// 12/11 Q1022
  • 190220Z AUTO 22002KT 9999 FEW240/// 12/11 Q1022
  • 190150Z AUTO 23004KT 190V260 9999 FEW240/// 13/11 Q1022
  • 190120Z AUTO 24003KT 9999 FEW240/// 13/11 Q1022
  • 190050Z AUTO 25004KT 210V270 9999 FEW240/// 13/11 Q1022
  • 190020Z AUTO 25005KT 9999 FEW240/// 13/11 Q1022

TAF TAF EKAH
Valid from the 19 at 00:00 until the 20 at 00:00 UTC


182303Z 1900/1924 27005KT CAVOK



MET'MAP, your aeronautical weather chart ! - Copyright ORBIFLY December 2007 - Disclaimer

ORBIFLY MET'MAP TEAM :

Programming & Development : Alexandra Zaïnal
Original concept : Baudouin d'Aumeries
Technical & hardware support : Manuel Goepfert
Assistance : Marc-Olivier Méhu




SOURCES & CREDITS :

   NOAA